Time;durP1;ratioP1;P1;durP2;ratioP2;P2;SDS_P1;SDS_P2;PMS_P1;PMS_P2;Temp;Humidity;BMP_temperature;BMP_pressure;BME280_temperature;BME280_humidity;BME280_pressure;Samples;Min_cycle;Max_cycle;Signal;HPM_P1;HPM_P2
2022/10/23 00:00:33;;;;;;;20.48;13.90;;;;;;;;;;5081192;28;20415;-77
2022/10/23 00:02:59;;;;;;;19.48;13.80;;;;;;;;;;5085507;28;20421;-78
2022/10/23 00:05:26;;;;;;;18.00;13.05;;;;;;;;;;5096054;28;20474;-78
2022/10/23 00:07:52;;;;;;;17.77;13.40;;;;;;;;;;5107015;28;20425;-78
2022/10/23 00:10:19;;;;;;;19.05;13.32;;;;;;;;;;5071877;28;20436;-78
2022/10/23 00:12:45;;;;;;;17.85;13.57;;;;;;;;;;5115660;28;20418;-89
2022/10/23 00:15:11;;;;;;;19.33;13.80;;;;;;;;;;5087833;28;20429;-90
2022/10/23 00:17:37;;;;;;;17.88;13.27;;;;;;;;;;5089189;28;20416;-90
2022/10/23 00:20:05;;;;;;;18.98;13.00;;;;;;;;;;5093837;28;20410;-90
2022/10/23 00:22:31;;;;;;;17.45;12.98;;;;;;;;;;5088902;28;20436;-91
2022/10/23 00:24:57;;;;;;;18.85;13.25;;;;;;;;;;5093920;28;20420;-90
2022/10/23 00:27:23;;;;;;;19.23;13.00;;;;;;;;;;5071966;28;20426;-90
2022/10/23 00:29:49;;;;;;;20.85;13.68;;;;;;;;;;5075957;28;20421;-90
2022/10/23 00:32:15;;;;;;;20.10;13.73;;;;;;;;;;5091928;28;20420;-91
2022/10/23 00:34:41;;;;;;;19.52;13.50;;;;;;;;;;5074698;28;20466;-90
2022/10/23 00:37:10;;;;;;;18.20;13.05;;;;;;;;;;5094291;28;20485;-91
2022/10/23 00:39:36;;;;;;;19.52;13.57;;;;;;;;;;5077715;28;20433;-91
2022/10/23 00:42:02;;;;;;;20.13;13.25;;;;;;;;;;5089376;28;20412;-90
2022/10/23 00:44:29;;;;;;;18.48;13.48;;;;;;;;;;5095505;28;20602;-90
2022/10/23 00:46:55;;;;;;;22.60;13.30;;;;;;;;;;5097185;28;20186;-90
2022/10/23 00:49:21;;;;;;;19.23;14.40;;;;;;;;;;5072181;28;20514;-89
2022/10/23 00:51:52;;;;;;;20.13;12.57;;;;;;;;;;5070655;28;20187;-89
2022/10/23 00:54:19;;;;;;;17.48;13.85;;;;;;;;;;5085190;28;20426;-89
2022/10/23 00:56:48;;;;;;;18.35;13.25;;;;;;;;;;5098458;28;20419;-89
2022/10/23 00:59:15;;;;;;;18.38;11.60;;;;;;;;;;5092292;28;20325;-90
2022/10/23 01:01:41;;;;;;;17.60;13.57;;;;;;;;;;5093232;28;20411;-91
2022/10/23 01:04:08;;;;;;;19.23;13.18;;;;;;;;;;5086838;28;20401;-77
2022/10/23 01:06:39;;;;;;;17.75;13.55;;;;;;;;;;5074162;28;20430;-77
2022/10/23 01:09:24;;;;;;;19.30;13.48;;;;;;;;;;5092811;28;20431;-77
2022/10/23 01:12:08;;;;;;;19.57;13.57;;;;;;;;;;5089773;28;20503;-77
2022/10/23 01:14:42;;;;;;;19.85;13.90;;;;;;;;;;5084911;28;20480;-77
2022/10/23 01:17:12;;;;;;;19.30;13.20;;;;;;;;;;5086247;28;20466;-77
2022/10/23 01:19:41;;;;;;;15.50;11.27;;;;;;;;;;5088296;28;20284;-82
2022/10/23 01:22:26;;;;;;;16.43;11.77;;;;;;;;;;5086848;28;20194;-82
2022/10/23 01:25:02;;;;;;;20.20;13.85;;;;;;;;;;5088330;28;20428;-82
2022/10/23 01:27:32;;;;;;;17.30;12.95;;;;;;;;;;5088982;28;20440;-82
2022/10/23 01:30:03;;;;;;;16.38;12.38;;;;;;;;;;5085670;28;20512;-82
2022/10/23 01:32:39;;;;;;;17.58;12.85;;;;;;;;;;5087730;28;20416;-83
2022/10/23 01:35:05;;;;;;;16.85;13.43;;;;;;;;;;5085512;28;20448;-82
2022/10/23 01:37:39;;;;;;;19.75;13.40;;;;;;;;;;5090732;28;20496;-80
2022/10/23 01:40:09;;;;;;;20.52;13.77;;;;;;;;;;5091381;28;20435;-80
2022/10/23 01:42:41;;;;;;;18.47;13.23;;;;;;;;;;5098731;28;20490;-80
2022/10/23 01:45:09;;;;;;;15.50;12.75;;;;;;;;;;5100866;28;20919;-80
2022/10/23 01:47:35;;;;;;;17.95;13.38;;;;;;;;;;5092858;28;20444;-80
2022/10/23 01:50:03;;;;;;;18.73;12.90;;;;;;;;;;5093886;28;20477;-80
2022/10/23 01:52:29;;;;;;;19.48;12.65;;;;;;;;;;5092764;28;20423;-80
2022/10/23 01:54:57;;;;;;;16.00;12.10;;;;;;;;;;5091339;28;20435;-80
2022/10/23 01:57:25;;;;;;;17.33;12.45;;;;;;;;;;5093572;28;20408;-80
2022/10/23 01:59:53;;;;;;;19.53;11.87;;;;;;;;;;5093186;28;20413;-81
2022/10/23 02:02:20;;;;;;;15.13;12.05;;;;;;;;;;5093187;28;20424;-80
2022/10/23 02:05:06;;;;;;;17.67;13.32;;;;;;;;;;5092588;28;20531;-80
2022/10/23 02:07:32;;;;;;;16.73;13.13;;;;;;;;;;5093620;28;20474;-80
2022/10/23 02:09:58;;;;;;;16.67;12.73;;;;;;;;;;5088358;28;20425;-82
2022/10/23 02:12:40;;;;;;;15.43;12.82;;;;;;;;;;5093357;28;20408;-82
2022/10/23 02:15:18;;;;;;;16.33;13.27;;;;;;;;;;5100749;28;20448;-83
2022/10/23 02:17:54;;;;;;;19.83;13.85;;;;;;;;;;5095442;28;20411;-82
2022/10/23 02:20:36;;;;;;;16.33;13.63;;;;;;;;;;5088946;28;20422;-82
2022/10/23 02:23:20;;;;;;;19.30;13.45;;;;;;;;;;5079277;28;20415;-82
2022/10/23 02:25:46;;;;;;;17.80;13.32;;;;;;;;;;5082226;28;20423;-90
2022/10/23 02:28:15;;;;;;;18.48;13.40;;;;;;;;;;5102948;28;20508;-90
2022/10/23 02:30:44;;;;;;;16.35;12.65;;;;;;;;;;5097317;28;20475;-89
2022/10/23 02:33:11;;;;;;;16.38;12.27;;;;;;;;;;5098791;28;20418;-91
2022/10/23 02:35:37;;;;;;;16.77;12.43;;;;;;;;;;5101154;28;20441;-90
2022/10/23 02:38:03;;;;;;;16.83;12.70;;;;;;;;;;5060411;28;20414;-90
2022/10/23 02:40:40;;;;;;;17.03;12.60;;;;;;;;;;5097189;28;20425;-89
2022/10/23 02:43:20;;;;;;;14.88;12.68;;;;;;;;;;5101236;28;20464;-89
2022/10/23 02:45:53;;;;;;;18.90;12.60;;;;;;;;;;5097702;28;20447;-89
2022/10/23 02:48:24;;;;;;;14.13;12.10;;;;;;;;;;5100799;28;20418;-89
2022/10/23 02:50:59;;;;;;;16.85;11.45;;;;;;;;;;5117384;28;20407;-89
2022/10/23 02:53:30;;;;;;;15.30;11.93;;;;;;;;;;5115804;28;20411;-89
2022/10/23 02:55:56;;;;;;;15.15;10.68;;;;;;;;;;5081800;28;20439;-89
2022/10/23 02:58:37;;;;;;;15.57;11.23;;;;;;;;;;5086875;28;20413;-90
2022/10/23 03:01:11;;;;;;;17.98;11.55;;;;;;;;;;5094521;28;20429;-83
2022/10/23 03:03:42;;;;;;;17.90;11.85;;;;;;;;;;5099579;28;20429;-83
2022/10/23 03:06:08;;;;;;;16.95;13.05;;;;;;;;;;5087793;28;20429;-83
2022/10/23 03:08:49;;;;;;;16.13;12.57;;;;;;;;;;5079516;28;20456;-83
2022/10/23 03:11:15;;;;;;;17.70;10.48;;;;;;;;;;5092204;28;20424;-83
2022/10/23 03:13:41;;;;;;;17.17;10.60;;;;;;;;;;5077787;28;20429;-83
2022/10/23 03:16:07;;;;;;;14.30;10.25;;;;;;;;;;5080666;28;20434;-90
2022/10/23 03:18:33;;;;;;;13.98;10.73;;;;;;;;;;5077524;28;20457;-90
2022/10/23 03:20:59;;;;;;;17.05;10.88;;;;;;;;;;5076453;28;20444;-91
2022/10/23 03:23:25;;;;;;;16.27;11.27;;;;;;;;;;5076374;28;20410;-90
2022/10/23 03:25:52;;;;;;;15.63;9.97;;;;;;;;;;5075069;28;20194;-90
2022/10/23 03:28:18;;;;;;;17.85;12.70;;;;;;;;;;5079807;28;20409;-89
2022/10/23 03:30:44;;;;;;;17.85;12.57;;;;;;;;;;5068232;28;20415;-89
2022/10/23 03:33:10;;;;;;;19.35;13.88;;;;;;;;;;5058100;28;20409;-77
2022/10/23 03:35:36;;;;;;;14.07;11.70;;;;;;;;;;5067967;28;20438;-78
2022/10/23 03:38:02;;;;;;;15.80;11.87;;;;;;;;;;5105991;28;20461;-78
2022/10/23 03:40:28;;;;;;;14.83;10.17;;;;;;;;;;5104735;28;20174;-78
2022/10/23 03:42:54;;;;;;;16.23;11.65;;;;;;;;;;5077625;28;20527;-78
2022/10/23 03:45:20;;;;;;;17.25;11.48;;;;;;;;;;5090601;28;20503;-78
2022/10/23 03:47:47;;;;;;;15.48;11.60;;;;;;;;;;5078111;28;20504;-77
2022/10/23 03:50:13;;;;;;;15.63;10.63;;;;;;;;;;5103447;28;20426;-82
2022/10/23 03:52:39;;;;;;;20.30;11.85;;;;;;;;;;5095905;28;20549;-82
2022/10/23 03:55:05;;;;;;;17.20;10.67;;;;;;;;;;5111749;28;20229;-82
2022/10/23 03:57:32;;;;;;;16.23;11.85;;;;;;;;;;5115493;28;20406;-82
2022/10/23 03:59:58;;;;;;;18.70;12.07;;;;;;;;;;5095273;28;20420;-82
2022/10/23 04:02:24;;;;;;;18.23;12.83;;;;;;;;;;5092955;28;20489;-82
2022/10/23 04:04:50;;;;;;;16.55;12.13;;;;;;;;;;5074854;28;20513;-82
2022/10/23 04:07:16;;;;;;;19.88;12.35;;;;;;;;;;5093222;28;20532;-78
2022/10/23 04:09:42;;;;;;;16.92;12.32;;;;;;;;;;5100806;28;20467;-78
2022/10/23 04:12:08;;;;;;;15.05;11.20;;;;;;;;;;5101556;28;20508;-78
2022/10/23 04:14:34;;;;;;;17.42;11.73;;;;;;;;;;5098873;28;20439;-77
2022/10/23 04:17:00;;;;;;;15.20;12.00;;;;;;;;;;5095554;28;20473;-78
2022/10/23 04:19:26;;;;;;;17.07;10.10;;;;;;;;;;5078247;28;20277;-77
2022/10/23 04:21:52;;;;;;;18.15;12.32;;;;;;;;;;5095133;28;20432;-77
2022/10/23 04:24:18;;;;;;;17.83;12.40;;;;;;;;;;5075376;28;20426;-80
2022/10/23 04:26:44;;;;;;;11.30;10.10;;;;;;;;;;5095501;28;20183;-80
2022/10/23 04:29:10;;;;;;;13.30;10.03;;;;;;;;;;5100305;28;20186;-80
2022/10/23 04:31:36;;;;;;;17.20;11.40;;;;;;;;;;5093004;28;20456;-80
2022/10/23 04:34:02;;;;;;;15.10;11.00;;;;;;;;;;5094176;28;20196;-80
2022/10/23 04:36:28;;;;;;;14.97;9.67;;;;;;;;;;5099020;28;20194;-80
2022/10/23 04:38:54;;;;;;;18.27;10.07;;;;;;;;;;5077682;28;20183;-80
2022/10/23 04:41:20;;;;;;;17.20;12.52;;;;;;;;;;5079766;28;20438;-78
2022/10/23 04:43:46;;;;;;;16.97;10.67;;;;;;;;;;5084074;28;20200;-77
2022/10/23 04:46:12;;;;;;;17.58;12.63;;;;;;;;;;5079168;28;20428;-77
2022/10/23 04:48:38;;;;;;;16.85;11.05;;;;;;;;;;5082869;28;20462;-78
2022/10/23 04:51:05;;;;;;;16.93;12.20;;;;;;;;;;5080090;28;20430;-78
2022/10/23 04:53:31;;;;;;;21.55;13.27;;;;;;;;;;5078346;28;20425;-89
2022/10/23 04:55:58;;;;;;;18.05;12.27;;;;;;;;;;5094882;28;20429;-80
2022/10/23 04:58:25;;;;;;;17.60;12.70;;;;;;;;;;5094332;28;20409;-80
2022/10/23 05:00:51;;;;;;;21.23;12.40;;;;;;;;;;5093606;28;20508;-80
2022/10/23 05:03:18;;;;;;;17.08;11.13;;;;;;;;;;5094014;28;20423;-80
2022/10/23 05:05:44;;;;;;;18.83;12.50;;;;;;;;;;5092584;28;20474;-80
2022/10/23 05:08:10;;;;;;;18.52;12.55;;;;;;;;;;5075849;28;20452;-80
2022/10/23 05:10:36;;;;;;;22.60;12.88;;;;;;;;;;5098435;28;20426;-80
2022/10/23 05:13:02;;;;;;;21.75;13.70;;;;;;;;;;5078190;28;20438;-90
2022/10/23 05:15:28;;;;;;;22.20;12.75;;;;;;;;;;5099622;28;20472;-83
2022/10/23 05:18:08;;;;;;;22.40;12.63;;;;;;;;;;5092857;28;20425;-83
2022/10/23 05:20:35;;;;;;;20.47;9.93;;;;;;;;;;5096794;28;20222;-82
2022/10/23 05:23:02;;;;;;;21.08;12.90;;;;;;;;;;5104318;22;20560;-76
2022/10/23 05:25:29;;;;;;;21.23;12.68;;;;;;;;;;4982838;28;20527;-76
2022/10/23 05:27:55;;;;;;;24.00;13.65;;;;;;;;;;5001384;28;20423;-80
2022/10/23 05:30:21;;;;;;;19.70;11.82;;;;;;;;;;4983687;28;20438;-83
2022/10/23 05:32:47;;;;;;;15.23;10.67;;;;;;;;;;5000053;28;20194;-83
2022/10/23 05:35:15;;;;;;;17.40;10.10;;;;;;;;;;4982506;28;20256;-91
2022/10/23 05:37:46;;;;;;;22.23;11.88;;;;;;;;;;5003362;28;20432;-86
2022/10/23 05:40:12;;;;;;;21.63;10.97;;;;;;;;;;5005705;28;20184;-91
2022/10/23 05:42:38;;;;;;;25.75;13.85;;;;;;;;;;5006032;28;20407;-91
2022/10/23 05:45:07;;;;;;;21.50;11.30;;;;;;;;;;4978212;28;20204;-91
2022/10/23 05:47:33;;;;;;;22.37;11.23;;;;;;;;;;4979440;28;20181;-78
2022/10/23 05:49:59;;;;;;;23.90;12.18;;;;;;;;;;4994853;28;20411;-79
2022/10/23 05:52:28;;;;;;;21.80;11.43;;;;;;;;;;4986061;28;20190;-79
2022/10/23 05:54:54;;;;;;;24.08;14.15;;;;;;;;;;5001085;28;20460;-79
2022/10/23 05:57:20;;;;;;;23.97;11.57;;;;;;;;;;5000663;28;20197;-79
2022/10/23 05:59:46;;;;;;;17.67;11.03;;;;;;;;;;4985799;28;20210;-79
2022/10/23 06:02:12;;;;;;;24.33;11.07;;;;;;;;;;4983912;28;20224;-79
2022/10/23 06:04:38;;;;;;;21.10;11.33;;;;;;;;;;4999960;28;20186;-81
2022/10/23 06:07:04;;;;;;;20.30;13.75;;;;;;;;;;4996257;28;20499;-81
2022/10/23 06:09:30;;;;;;;26.23;14.98;;;;;;;;;;5002851;28;20510;-81
2022/10/23 06:11:56;;;;;;;23.42;13.93;;;;;;;;;;4984134;28;20425;-81
2022/10/23 06:14:25;;;;;;;23.02;12.75;;;;;;;;;;5013422;28;20438;-81
2022/10/23 06:16:51;;;;;;;21.97;11.43;;;;;;;;;;4999646;28;20223;-81
2022/10/23 06:19:17;;;;;;;19.63;11.63;;;;;;;;;;4982569;28;20185;-81
2022/10/23 06:21:43;;;;;;;24.05;14.48;;;;;;;;;;4984880;28;20427;-81
2022/10/23 06:24:09;;;;;;;21.05;12.98;;;;;;;;;;4982300;28;20443;-81
2022/10/23 06:26:35;;;;;;;23.00;12.70;;;;;;;;;;4985007;28;20192;-81
2022/10/23 06:29:01;;;;;;;26.05;15.73;;;;;;;;;;4995887;28;20433;-81
2022/10/23 06:31:27;;;;;;;19.03;12.83;;;;;;;;;;5000097;28;20170;-81
2022/10/23 06:33:53;;;;;;;28.73;17.02;;;;;;;;;;4979330;28;20524;-81
2022/10/23 06:36:19;;;;;;;31.92;17.17;;;;;;;;;;4991252;28;20469;-90
2022/10/23 06:38:46;;;;;;;28.90;17.85;;;;;;;;;;4992122;28;20474;-90
2022/10/23 06:41:16;;;;;;;22.97;13.60;;;;;;;;;;4993022;28;20247;-90
2022/10/23 06:43:42;;;;;;;24.20;14.98;;;;;;;;;;4991806;28;20456;-90
2022/10/23 06:46:09;;;;;;;23.57;13.43;;;;;;;;;;4977072;28;20188;-90
2022/10/23 06:48:35;;;;;;;21.07;13.13;;;;;;;;;;4974324;28;20198;-90
2022/10/23 06:51:04;;;;;;;24.42;15.98;;;;;;;;;;4980932;28;20467;-89
2022/10/23 06:53:30;;;;;;;22.73;14.40;;;;;;;;;;4996336;28;20481;-89
2022/10/23 06:56:00;;;;;;;26.63;16.63;;;;;;;;;;4985710;28;20522;-89
2022/10/23 06:58:26;;;;;;;29.05;15.95;;;;;;;;;;5007419;28;20462;-90
2022/10/23 07:00:52;;;;;;;25.52;16.30;;;;;;;;;;4992929;28;20472;-90
2022/10/23 07:03:18;;;;;;;29.73;16.83;;;;;;;;;;4990735;28;20405;-89
2022/10/23 07:05:46;;;;;;;26.40;16.45;;;;;;;;;;5004858;28;20460;-89
2022/10/23 07:08:12;;;;;;;26.67;16.75;;;;;;;;;;5011574;28;20407;-89
2022/10/23 07:10:41;;;;;;;27.20;17.40;;;;;;;;;;5001835;28;20458;-78
2022/10/23 07:13:08;;;;;;;27.30;16.77;;;;;;;;;;4986097;28;20439;-78
2022/10/23 07:15:34;;;;;;;29.35;16.70;;;;;;;;;;4984575;28;20432;-78
2022/10/23 07:18:00;;;;;;;25.03;12.43;;;;;;;;;;5001652;28;20237;-78
2022/10/23 07:20:26;;;;;;;25.35;14.32;;;;;;;;;;5003296;28;20400;-81
2022/10/23 07:22:53;;;;;;;25.17;16.05;;;;;;;;;;4987297;28;20443;-80
2022/10/23 07:25:20;;;;;;;24.85;15.65;;;;;;;;;;5003239;28;20409;-81
2022/10/23 07:27:49;;;;;;;25.35;15.27;;;;;;;;;;5002809;28;20487;-82
2022/10/23 07:30:15;;;;;;;27.20;15.83;;;;;;;;;;4999418;28;20462;-81
2022/10/23 07:32:42;;;;;;;24.98;15.65;;;;;;;;;;5003244;28;20639;-82
2022/10/23 07:35:09;;;;;;;24.58;15.07;;;;;;;;;;5008984;28;20440;-81
2022/10/23 07:37:35;;;;;;;26.05;14.75;;;;;;;;;;4993476;28;20425;-82
2022/10/23 07:40:01;;;;;;;24.33;14.65;;;;;;;;;;5012630;28;20407;-82
2022/10/23 07:42:27;;;;;;;22.90;14.80;;;;;;;;;;5001398;28;20422;-78
2022/10/23 07:44:53;;;;;;;24.00;15.02;;;;;;;;;;4996135;28;20421;-77
2022/10/23 07:47:19;;;;;;;24.05;13.93;;;;;;;;;;4996473;28;20438;-78
2022/10/23 07:49:46;;;;;;;23.48;14.60;;;;;;;;;;5011867;28;20415;-78
2022/10/23 07:52:12;;;;;;;26.43;14.73;;;;;;;;;;5006674;28;20421;-78
2022/10/23 07:54:38;;;;;;;27.30;14.57;;;;;;;;;;4992370;28;20462;-78
2022/10/23 07:57:06;;;;;;;24.83;14.63;;;;;;;;;;4973315;28;20438;-78
2022/10/23 07:59:32;;;;;;;24.30;13.38;;;;;;;;;;5007383;28;20451;-81
2022/10/23 08:01:58;;;;;;;23.63;14.20;;;;;;;;;;5004082;28;20454;-80
2022/10/23 08:04:24;;;;;;;20.10;13.60;;;;;;;;;;5008245;28;20476;-80
2022/10/23 08:06:50;;;;;;;20.58;13.93;;;;;;;;;;4982985;28;20426;-80
2022/10/23 08:09:16;;;;;;;23.67;14.20;;;;;;;;;;5002815;28;20455;-80
2022/10/23 08:11:42;;;;;;;22.25;13.68;;;;;;;;;;5004249;28;20434;-80
2022/10/23 08:14:09;;;;;;;22.60;13.90;;;;;;;;;;5003362;28;20415;-80
2022/10/23 08:16:36;;;;;;;21.90;13.70;;;;;;;;;;4998125;28;20415;-77
2022/10/23 08:19:02;;;;;;;20.33;13.27;;;;;;;;;;5012184;28;20403;-77
2022/10/23 08:21:29;;;;;;;23.17;13.05;;;;;;;;;;5011753;28;20407;-89
2022/10/23 08:23:58;;;;;;;19.95;12.50;;;;;;;;;;4994187;28;20436;-88
2022/10/23 08:26:25;;;;;;;19.95;12.43;;;;;;;;;;4986822;28;20431;-88
2022/10/23 08:28:51;;;;;;;20.07;11.57;;;;;;;;;;4956377;28;20415;-89
2022/10/23 08:31:18;;;;;;;18.58;12.35;;;;;;;;;;4972661;28;20490;-88
2022/10/23 08:33:44;;;;;;;18.80;12.07;;;;;;;;;;4972399;28;20410;-77
2022/10/23 08:36:16;;;;;;;17.42;12.13;;;;;;;;;;4972002;28;20492;-77
2022/10/23 08:38:42;;;;;;;19.75;11.77;;;;;;;;;;4983403;28;20413;-77
2022/10/23 08:41:28;;;;;;;16.40;11.80;;;;;;;;;;4991670;28;20428;-77
2022/10/23 08:44:03;;;;;;;19.48;11.00;;;;;;;;;;4992142;28;20424;-78
2022/10/23 08:46:31;;;;;;;18.33;11.00;;;;;;;;;;4991996;28;20408;-78
2022/10/23 08:49:17;;;;;;;16.45;10.25;;;;;;;;;;4991652;28;20405;-87
2022/10/23 08:51:48;;;;;;;22.83;12.23;;;;;;;;;;4991271;28;20460;-80
2022/10/23 08:54:17;;;;;;;17.88;10.30;;;;;;;;;;4992888;28;20416;-80
2022/10/23 08:56:46;;;;;;;17.75;10.60;;;;;;;;;;4991004;28;20523;-80
2022/10/23 08:59:27;;;;;;;15.20;9.30;;;;;;;;;;4989970;28;20423;-80
2022/10/23 09:02:08;;;;;;;18.70;9.83;;;;;;;;;;4972454;28;20434;-79
2022/10/23 09:04:34;;;;;;;15.98;9.15;;;;;;;;;;4981351;28;20412;-80
2022/10/23 09:07:12;;;;;;;16.77;9.07;;;;;;;;;;4991009;28;20437;-77
2022/10/23 09:09:38;;;;;;;15.07;8.65;;;;;;;;;;4990988;28;20557;-77
2022/10/23 09:12:24;;;;;;;14.68;8.63;;;;;;;;;;4991618;28;20428;-77
2022/10/23 09:14:56;;;;;;;14.33;7.57;;;;;;;;;;4992234;28;20205;-77
2022/10/23 09:17:28;;;;;;;13.93;8.05;;;;;;;;;;4988784;28;20418;-77
2022/10/23 09:20:14;;;;;;;12.30;6.90;;;;;;;;;;4999383;28;20178;-77
2022/10/23 09:22:41;;;;;;;15.43;8.20;;;;;;;;;;5017417;28;20189;-90
2022/10/23 09:25:15;;;;;;;11.63;7.43;;;;;;;;;;4972318;28;20242;-90
2022/10/23 09:27:48;;;;;;;14.83;7.90;;;;;;;;;;4973887;28;20183;-89
2022/10/23 09:30:24;;;;;;;13.33;8.10;;;;;;;;;;4972537;28;20186;-89
2022/10/23 09:32:50;;;;;;;16.13;8.65;;;;;;;;;;4973399;28;20415;-90
2022/10/23 09:35:21;;;;;;;13.70;9.10;;;;;;;;;;4954553;28;20466;-90
2022/10/23 09:37:51;;;;;;;15.90;8.10;;;;;;;;;;4972218;28;20171;-89
2022/10/23 09:40:17;;;;;;;15.33;7.80;;;;;;;;;;4982606;28;20190;-89
2022/10/23 09:43:13;;;;;;;13.97;7.87;;;;;;;;;;5012417;28;20208;-89
2022/10/23 09:45:41;;;;;;;16.57;7.80;;;;;;;;;;5002578;28;20189;-89
2022/10/23 09:48:17;;;;;;;11.87;6.60;;;;;;;;;;5003851;28;20186;-89
2022/10/23 09:50:52;;;;;;;11.43;6.70;;;;;;;;;;4993115;28;20185;-90
2022/10/23 09:53:26;;;;;;;11.53;6.70;;;;;;;;;;4992563;28;20229;-90
2022/10/23 09:55:56;;;;;;;9.77;6.93;;;;;;;;;;4986632;28;20205;-90
2022/10/23 09:58:36;;;;;;;10.53;6.30;;;;;;;;;;4992078;28;20217;-89
2022/10/23 10:01:03;;;;;;;14.37;6.33;;;;;;;;;;4995726;28;20182;-90
2022/10/23 10:03:29;;;;;;;13.20;6.40;;;;;;;;;;4990922;28;20182;-90
2022/10/23 10:06:00;;;;;;;11.83;5.53;;;;;;;;;;5001770;28;20235;-91
2022/10/23 10:08:36;;;;;;;10.23;6.13;;;;;;;;;;5009469;28;20181;-90
2022/10/23 10:11:01;;;;;;;11.70;5.40;;;;;;;;;;4990930;28;20178;-89
2022/10/23 10:13:36;;;;;;;11.00;5.87;;;;;;;;;;4991689;28;20269;-82
2022/10/23 10:16:08;;;;;;;11.57;5.87;;;;;;;;;;5003959;28;20301;-82
2022/10/23 10:18:39;;;;;;;11.63;5.63;;;;;;;;;;5010622;28;20181;-82
2022/10/23 10:21:24;;;;;;;9.87;5.43;;;;;;;;;;4994291;28;20170;-82
2022/10/23 10:24:07;;;;;;;10.63;5.10;;;;;;;;;;4988599;28;20229;-82
2022/10/23 10:26:33;;;;;;;9.90;5.50;;;;;;;;;;5005733;28;20188;-82
2022/10/23 10:28:59;;;;;;;11.60;5.50;;;;;;;;;;5010325;28;20184;-82
2022/10/23 10:31:28;;;;;;;12.73;5.63;;;;;;;;;;5000824;28;20194;-90
2022/10/23 10:34:17;;;;;;;12.73;6.30;;;;;;;;;;5000138;28;20189;-90
2022/10/23 10:36:43;;;;;;;12.93;5.00;;;;;;;;;;4998563;28;20222;-90
2022/10/23 10:39:36;;;;;;;9.57;5.10;;;;;;;;;;4991026;28;20170;-82
2022/10/23 10:42:05;;;;;;;9.67;5.10;;;;;;;;;;4997592;28;20182;-82
2022/10/23 10:44:31;;;;;;;11.07;5.40;;;;;;;;;;4991784;28;20261;-82
2022/10/23 10:47:16;;;;;;;12.37;5.33;;;;;;;;;;5004629;28;20315;-77
2022/10/23 10:49:47;;;;;;;9.23;5.60;;;;;;;;;;4988850;28;20220;-77
2022/10/23 10:52:24;;;;;;;7.97;5.13;;;;;;;;;;4985751;28;20183;-77
2022/10/23 10:54:57;;;;;;;7.73;4.47;;;;;;;;;;4972227;28;20206;-77
2022/10/23 10:57:23;;;;;;;9.37;5.00;;;;;;;;;;5003343;28;20223;-77
2022/10/23 10:59:50;;;;;;;9.13;5.30;;;;;;;;;;5005983;28;20186;-77
2022/10/23 11:02:28;;;;;;;10.00;4.97;;;;;;;;;;5005693;28;20188;-77
2022/10/23 11:04:54;;;;;;;8.30;5.00;;;;;;;;;;5009858;28;20193;-80
2022/10/23 11:07:23;;;;;;;10.13;4.63;;;;;;;;;;4977810;28;20219;-80
2022/10/23 11:09:49;;;;;;;8.57;4.80;;;;;;;;;;4996411;28;20235;-80
2022/10/23 11:12:17;;;;;;;10.87;5.17;;;;;;;;;;4979072;28;20197;-80
2022/10/23 11:14:44;;;;;;;9.43;4.67;;;;;;;;;;4991070;28;20212;-80
2022/10/23 11:17:17;;;;;;;10.87;4.90;;;;;;;;;;4998275;28;20190;-80
2022/10/23 11:19:46;;;;;;;9.17;5.27;;;;;;;;;;5003447;28;20225;-77
2022/10/23 11:22:20;;;;;;;10.37;4.80;;;;;;;;;;5001339;28;20220;-77
2022/10/23 11:25:05;;;;;;;11.97;4.80;;;;;;;;;;5009075;28;20225;-77
2022/10/23 11:27:40;;;;;;;7.43;4.77;;;;;;;;;;4993025;28;20268;-77
2022/10/23 11:30:09;;;;;;;8.33;5.17;;;;;;;;;;4998552;28;20192;-77
2022/10/23 11:32:50;;;;;;;9.03;4.40;;;;;;;;;;5008980;28;20185;-77
2022/10/23 11:35:19;;;;;;;7.87;4.50;;;;;;;;;;4987733;28;20214;-77
2022/10/23 11:37:56;;;;;;;9.57;5.23;;;;;;;;;;4986593;28;20225;-80
2022/10/23 11:40:23;;;;;;;10.97;5.47;;;;;;;;;;4998880;28;20208;-80
2022/10/23 11:42:50;;;;;;;9.27;4.57;;;;;;;;;;4995281;28;20189;-80
2022/10/23 11:45:27;;;;;;;6.43;4.70;;;;;;;;;;4990057;28;20217;-80
2022/10/23 11:47:57;;;;;;;8.63;5.07;;;;;;;;;;4992528;28;20278;-80
2022/10/23 11:50:25;;;;;;;8.57;4.85;;;;;;;;;;4996059;28;20468;-80
2022/10/23 11:52:54;;;;;;;8.17;4.50;;;;;;;;;;4995236;28;20173;-83
2022/10/23 11:55:23;;;;;;;10.23;4.37;;;;;;;;;;5003103;28;20247;-83
2022/10/23 11:58:04;;;;;;;6.93;4.47;;;;;;;;;;4992952;28;20253;-82
2022/10/23 12:00:31;;;;;;;8.97;4.40;;;;;;;;;;5004328;28;20216;-83
2022/10/23 12:02:57;;;;;;;8.57;4.20;;;;;;;;;;4976693;28;20186;-82
2022/10/23 12:05:30;;;;;;;9.40;4.13;;;;;;;;;;4992099;28;20205;-83
2022/10/23 12:07:58;;;;;;;7.83;4.30;;;;;;;;;;4994923;28;20213;-83
2022/10/23 12:10:29;;;;;;;8.60;4.17;;;;;;;;;;5007900;28;20181;-78
2022/10/23 12:12:57;;;;;;;9.33;4.00;;;;;;;;;;4992150;28;20209;-78
2022/10/23 12:15:24;;;;;;;8.83;4.10;;;;;;;;;;4996553;28;20208;-78
2022/10/23 12:17:53;;;;;;;7.57;3.37;;;;;;;;;;5012953;28;20170;-77
2022/10/23 12:20:27;;;;;;;8.20;3.83;;;;;;;;;;5008546;28;20178;-78
2022/10/23 12:22:56;;;;;;;8.40;4.00;;;;;;;;;;4992623;28;20185;-79
2022/10/23 12:25:42;;;;;;;7.83;4.00;;;;;;;;;;4995342;28;20321;-89
2022/10/23 12:28:08;;;;;;;9.10;3.53;;;;;;;;;;5004257;28;20227;-80
2022/10/23 12:30:41;;;;;;;12.07;3.73;;;;;;;;;;5008806;28;20186;-81
2022/10/23 12:33:07;;;;;;;6.60;3.50;;;;;;;;;;5001641;28;20193;-80
2022/10/23 12:35:52;;;;;;;7.63;3.93;;;;;;;;;;4995899;28;20213;-80
2022/10/23 12:38:20;;;;;;;10.53;3.97;;;;;;;;;;5003994;28;20221;-80
2022/10/23 12:40:50;;;;;;;7.60;3.80;;;;;;;;;;4997529;28;20192;-80
2022/10/23 12:43:26;;;;;;;7.50;3.90;;;;;;;;;;4999626;28;20264;-83
2022/10/23 12:45:52;;;;;;;9.00;4.07;;;;;;;;;;4990857;28;20193;-83
2022/10/23 12:48:20;;;;;;;6.33;3.53;;;;;;;;;;4995115;28;20272;-83
2022/10/23 12:50:49;;;;;;;6.50;3.67;;;;;;;;;;5008042;28;20251;-83
2022/10/23 12:53:16;;;;;;;9.57;3.90;;;;;;;;;;4992689;28;20190;-83
2022/10/23 12:55:47;;;;;;;7.73;3.50;;;;;;;;;;4994663;28;20213;-83
2022/10/23 12:58:21;;;;;;;6.00;3.13;;;;;;;;;;5002622;28;20181;-83
2022/10/23 13:00:53;;;;;;;10.30;3.53;;;;;;;;;;5010234;28;20188;-83
2022/10/23 13:03:21;;;;;;;15.67;4.60;;;;;;;;;;4992840;28;20201;-83
2022/10/23 13:05:47;;;;;;;6.75;3.58;;;;;;;;;;4992442;28;20424;-85
2022/10/23 13:08:13;;;;;;;7.40;3.80;;;;;;;;;;4975585;28;20185;-87
2022/10/23 13:10:39;;;;;;;7.90;3.50;;;;;;;;;;4974321;28;20198;-88
2022/10/23 13:13:06;;;;;;;6.80;3.77;;;;;;;;;;4999815;28;20186;-89
2022/10/23 13:15:40;;;;;;;7.93;3.70;;;;;;;;;;4992029;28;20210;-89
2022/10/23 13:18:07;;;;;;;6.50;3.60;;;;;;;;;;4997389;28;20192;-82
2022/10/23 13:20:35;;;;;;;7.70;3.70;;;;;;;;;;5012625;28;20176;-82
2022/10/23 13:23:08;;;;;;;7.07;3.50;;;;;;;;;;4992823;28;20256;-82
2022/10/23 13:25:35;;;;;;;7.77;3.60;;;;;;;;;;4990836;28;20190;-81
2022/10/23 13:28:13;;;;;;;6.57;3.53;;;;;;;;;;5004088;28;20251;-81
2022/10/23 13:30:41;;;;;;;8.07;3.57;;;;;;;;;;4996063;28;20174;-81
2022/10/23 13:33:34;;;;;;;5.33;3.10;;;;;;;;;;4993815;28;20267;-87
2022/10/23 13:36:01;;;;;;;8.63;3.50;;;;;;;;;;4973413;28;20225;-88
2022/10/23 13:38:31;;;;;;;9.80;3.33;;;;;;;;;;4974759;28;20179;-88
2022/10/23 13:41:01;;;;;;;6.53;3.23;;;;;;;;;;4972156;28;20179;-88
2022/10/23 13:43:29;;;;;;;8.23;3.17;;;;;;;;;;4987072;28;20187;-88
2022/10/23 13:45:55;;;;;;;8.17;3.27;;;;;;;;;;4987537;28;20193;-88
2022/10/23 13:48:21;;;;;;;5.07;2.80;;;;;;;;;;5008821;28;20257;-89
2022/10/23 13:50:47;;;;;;;4.87;3.23;;;;;;;;;;4995078;28;20309;-82
2022/10/23 13:53:13;;;;;;;7.57;2.90;;;;;;;;;;4991358;28;20313;-82
2022/10/23 13:55:40;;;;;;;9.23;2.83;;;;;;;;;;4993876;28;20320;-82
2022/10/23 13:58:06;;;;;;;7.00;3.03;;;;;;;;;;5006204;28;20302;-82
2022/10/23 14:00:32;;;;;;;5.83;2.50;;;;;;;;;;5011404;28;20182;-82
2022/10/23 14:02:58;;;;;;;3.50;2.50;;;;;;;;;;4978372;28;20218;-82
2022/10/23 14:05:24;;;;;;;6.07;2.60;;;;;;;;;;4988124;28;20190;-82
2022/10/23 14:07:50;;;;;;;5.27;2.90;;;;;;;;;;5001328;28;20208;-89
2022/10/23 14:10:16;;;;;;;7.50;2.90;;;;;;;;;;4996366;28;20198;-88
2022/10/23 14:12:43;;;;;;;7.07;2.70;;;;;;;;;;4977225;28;20276;-89
2022/10/23 14:15:09;;;;;;;5.70;2.40;;;;;;;;;;4991600;28;20239;-88
2022/10/23 14:17:35;;;;;;;4.67;2.50;;;;;;;;;;4991424;28;20182;-88
2022/10/23 14:20:02;;;;;;;5.13;2.50;;;;;;;;;;4992096;28;20170;-89
2022/10/23 14:22:28;;;;;;;8.40;2.70;;;;;;;;;;4997734;28;20181;-77
2022/10/23 14:24:54;;;;;;;7.33;2.30;;;;;;;;;;5011332;28;20259;-77
2022/10/23 14:27:19;;;;;;;4.83;2.23;;;;;;;;;;5006227;28;20182;-77
2022/10/23 14:29:45;;;;;;;6.77;2.50;;;;;;;;;;4974724;28;20197;-77
2022/10/23 14:32:11;;;;;;;5.83;2.90;;;;;;;;;;4994337;28;20255;-77
2022/10/23 14:34:42;;;;;;;3.83;2.60;;;;;;;;;;4989356;28;20276;-77
2022/10/23 14:37:08;;;;;;;6.27;2.60;;;;;;;;;;4992674;28;20190;-77